Accueil
METAR-TAF:

METAR-TAF

Aéroports :

Aéroport d'Ajaccio-Napoléon-Bonaparte

Ajaccio, France

latitude: 41-55N, longitude: 008-48E, altitude: 6 m

Observation

Le bulletin a été fait il y a 36 minutes, à 19:00 UTC
Vent 3 kt de nord-est
Température 13°C
Humidité 77%
Pression 1016 hPa
Visibilité 10 km ou plus
Nuages fragmentés à une hauteur de 2400 ft

METAR: LFKJ 311900Z AUTO 04003KT 9999 BKN024 13/09 Q1016 NOSIG

Heure: 21:36 (19:36 UTC)

Prévision

Le bulletin a été fait il y a 5 heures et 36 minutes, à 14:00 UTC
Prévision valable du 31 à 15 UTC au 01 à 15 UTC
Vent 5 kt de direction variable
Visibilité 10 km ou plus
Evoluant progressivement
du 31 à 17 UTC au 31 à 20 UTC
Vent 4 kt de nord-est
Evoluant progressivement
du 01 à 11 UTC au 01 à 12 UTC
Vent 10 kt de ouest/nord-ouest

TAF: LFKJ 311400Z 3115/0115 VRB05KT 9999 NSC BECMG 3117/3120 05004KT BECMG 0111/0112 30010KT

Observations et prévisions météorologiques de plus de 4000 aéroports (messages METAR et TAF).

Les stations disponibles sont représentées par des disques jaunes et rouges sur la carte.

Passer la souris dessus pour voir le nom de la station.

Cliquer dessus pour voir les observations et prévisions météorologiques.

Pour changer de carte: cliquez sur les boutons verts avec une croix noire pour zoomer, sur le bouton vert avec un tiret pour effectuer un zoom arrière, ou sur les flèches vertes pour les cartes adjacentes.


METAR-TAF: